Time;durP1;ratioP1;P1;durP2;ratioP2;P2;SDS_P1;SDS_P2;PMS_P1;PMS_P2;Temp;Humidity;BMP_temperature;BMP_pressure;BME280_temperature;BME280_humidity;BME280_pressure;Samples;Min_cycle;Max_cycle;Signal;HPM_P1;HPM_P2
2022/07/30 00:01:41;;;;;;;6.03;4.40;;;;;;;;;;5033412;28;20859;-52
2022/07/30 00:04:32;;;;;;;4.90;3.93;;;;;;;;;;5058170;28;20429;-52
2022/07/30 00:07:15;;;;;;;5.20;3.63;;;;;;;;;;5041196;28;20186;-52
2022/07/30 00:09:45;;;;;;;5.03;4.37;;;;;;;;;;5050817;28;20410;-53
2022/07/30 00:12:14;;;;;;;4.67;4.27;;;;;;;;;;5053191;28;20452;-52
2022/07/30 00:14:40;;;;;;;4.77;4.37;;;;;;;;;;5043895;28;20469;-53
2022/07/30 00:17:09;;;;;;;5.90;4.13;;;;;;;;;;5050188;28;20952;-52
2022/07/30 00:19:35;;;;;;;7.17;4.10;;;;;;;;;;5034822;28;20467;-53
2022/07/30 00:22:01;;;;;;;5.40;3.60;;;;;;;;;;5046708;28;20477;-52
2022/07/30 00:24:33;;;;;;;3.97;3.40;;;;;;;;;;5056614;28;20504;-52
2022/07/30 00:27:26;;;;;;;3.27;2.97;;;;;;;;;;5044153;28;20494;-54
2022/07/30 00:29:54;;;;;;;4.10;3.70;;;;;;;;;;5056662;28;20434;-53
2022/07/30 00:32:20;;;;;;;5.60;4.07;;;;;;;;;;5060228;28;20519;-53
2022/07/30 00:34:46;;;;;;;7.00;4.00;;;;;;;;;;5036650;28;20491;-53
2022/07/30 00:37:12;;;;;;;4.37;3.93;;;;;;;;;;5053169;28;20502;-52
2022/07/30 00:39:38;;;;;;;10.13;4.80;;;;;;;;;;5041014;28;23919;-53
2022/07/30 00:42:16;;;;;;;6.30;4.60;;;;;;;;;;5053946;28;20477;-52
2022/07/30 00:44:44;;;;;;;6.80;6.10;;;;;;;;;;5064895;28;20465;-53
2022/07/30 00:47:12;;;;;;;5.13;4.63;;;;;;;;;;5055565;28;20465;-53
2022/07/30 00:49:38;;;;;;;4.90;4.27;;;;;;;;;;5058264;28;20433;-52
2022/07/30 00:52:04;;;;;;;7.67;5.37;;;;;;;;;;5033221;28;20448;-53
2022/07/30 00:54:30;;;;;;;5.90;5.30;;;;;;;;;;5044879;28;20542;-53
2022/07/30 00:56:56;;;;;;;6.03;5.00;;;;;;;;;;5022006;28;20899;-52
2022/07/30 00:59:22;;;;;;;5.33;4.83;;;;;;;;;;5069093;28;20445;-52
2022/07/30 01:01:50;;;;;;;11.20;5.50;;;;;;;;;;5023296;28;21226;-52
2022/07/30 01:04:16;;;;;;;6.13;4.60;;;;;;;;;;5047563;28;20442;-52
2022/07/30 01:06:42;;;;;;;5.00;4.60;;;;;;;;;;5035050;28;20919;-53
2022/07/30 01:09:20;;;;;;;7.10;5.83;;;;;;;;;;5064005;28;20467;-52
2022/07/30 01:11:48;;;;;;;5.27;4.77;;;;;;;;;;5054881;28;20467;-53
2022/07/30 01:14:21;;;;;;;4.67;4.27;;;;;;;;;;5059099;28;20429;-53
2022/07/30 01:16:55;;;;;;;6.63;4.13;;;;;;;;;;5035726;28;20189;-51
2022/07/30 01:22:19;;;;;;;6.10;4.53;;;;;;;;;;5042172;28;21873;-53
2022/07/30 01:27:58;;;;;;;6.07;4.00;;;;;;;;;;5059311;28;20796;-55
2022/07/30 01:30:28;;;;;;;9.63;3.80;;;;;;;;;;5055291;28;20493;-51
2022/07/30 01:32:55;;;;;;;6.43;4.40;;;;;;;;;;5065471;28;20445;-52
2022/07/30 01:35:22;;;;;;;6.73;3.50;;;;;;;;;;5035041;28;20441;-53
2022/07/30 01:37:48;;;;;;;5.43;4.70;;;;;;;;;;5046875;28;20524;-52
2022/07/30 01:43:47;;;;;;;4.43;4.03;;;;;;;;;;5045882;28;20467;-51
2022/07/30 01:46:32;;;;;;;4.50;3.97;;;;;;;;;;5054546;28;20440;-53
2022/07/30 01:49:01;;;;;;;4.30;3.90;;;;;;;;;;5052733;28;20441;-52
2022/07/30 01:51:41;;;;;;;4.77;4.27;;;;;;;;;;5052281;28;20595;-52
2022/07/30 01:57:20;;;;;;;6.23;5.63;;;;;;;;;;5030511;28;20459;-51
2022/07/30 01:59:54;;;;;;;5.07;4.57;;;;;;;;;;5037886;28;20453;-53
2022/07/30 02:02:27;;;;;;;5.33;4.83;;;;;;;;;;5058431;28;20474;-52
2022/07/30 02:04:53;;;;;;;4.83;4.33;;;;;;;;;;5060991;28;20438;-51
2022/07/30 02:07:22;;;;;;;4.87;4.47;;;;;;;;;;5041622;28;20453;-52
2022/07/30 02:09:53;;;;;;;5.10;4.70;;;;;;;;;;5058199;28;20183;-52
2022/07/30 02:12:29;;;;;;;5.20;4.70;;;;;;;;;;5027882;28;20561;-52
2022/07/30 02:15:14;;;;;;;5.00;4.53;;;;;;;;;;5056041;28;21098;-53
2022/07/30 02:17:44;;;;;;;4.40;4.00;;;;;;;;;;5049538;28;23193;-52
2022/07/30 02:20:11;;;;;;;5.93;4.10;;;;;;;;;;5045127;28;20458;-53
2022/07/30 02:23:08;;;;;;;5.67;3.97;;;;;;;;;;5059646;28;20437;-53
2022/07/30 02:25:38;;;;;;;6.17;4.60;;;;;;;;;;5051558;28;20461;-52
2022/07/30 02:28:05;;;;;;;4.47;4.07;;;;;;;;;;5038164;28;20473;-52
2022/07/30 02:30:32;;;;;;;5.40;4.87;;;;;;;;;;5045221;28;20443;-52
2022/07/30 02:33:02;;;;;;;5.27;4.23;;;;;;;;;;5053285;28;20460;-52
2022/07/30 02:35:28;;;;;;;5.70;4.87;;;;;;;;;;5050281;28;20505;-52
2022/07/30 02:37:55;;;;;;;4.37;3.97;;;;;;;;;;5054498;28;20441;-51
2022/07/30 02:40:42;;;;;;;4.43;4.03;;;;;;;;;;5040670;28;20433;-53
2022/07/30 02:43:09;;;;;;;4.20;3.70;;;;;;;;;;5061041;28;20446;-52
2022/07/30 02:45:55;;;;;;;8.43;4.97;;;;;;;;;;5045550;28;21188;-52
2022/07/30 02:48:37;;;;;;;4.43;4.03;;;;;;;;;;5063730;28;20446;-54
2022/07/30 02:51:07;;;;;;;5.60;4.40;;;;;;;;;;5064313;28;20518;-52
2022/07/30 02:53:37;;;;;;;6.30;4.20;;;;;;;;;;5060596;28;20445;-52
2022/07/30 02:56:03;;;;;;;4.67;4.20;;;;;;;;;;5040922;28;20419;-52
2022/07/30 02:58:42;;;;;;;5.00;4.60;;;;;;;;;;5061997;28;20441;-53
2022/07/30 03:01:12;;;;;;;4.43;4.03;;;;;;;;;;5052202;28;20523;-52
2022/07/30 03:03:38;;;;;;;4.50;4.10;;;;;;;;;;5053482;28;20445;-52
2022/07/30 03:06:08;;;;;;;4.40;4.10;;;;;;;;;;5001636;28;20433;-51
2022/07/30 03:08:35;;;;;;;4.53;4.13;;;;;;;;;;5045364;28;20446;-51
2022/07/30 03:11:01;;;;;;;5.33;4.83;;;;;;;;;;5056488;28;20537;-51
2022/07/30 03:13:29;;;;;;;6.77;4.07;;;;;;;;;;5062901;28;20583;-52
2022/07/30 03:15:55;;;;;;;6.20;4.23;;;;;;;;;;5025061;28;20569;-52
2022/07/30 03:18:21;;;;;;;6.10;4.40;;;;;;;;;;5046325;28;20830;-52
2022/07/30 03:20:51;;;;;;;5.27;4.23;;;;;;;;;;5031664;28;20470;-52
2022/07/30 03:23:24;;;;;;;5.50;4.40;;;;;;;;;;5056159;28;20453;-51
2022/07/30 03:25:56;;;;;;;4.57;4.13;;;;;;;;;;5021520;28;20494;-52
2022/07/30 03:28:23;;;;;;;4.93;4.53;;;;;;;;;;5026217;28;20517;-52
2022/07/30 03:31:09;;;;;;;5.27;4.50;;;;;;;;;;5037354;28;20442;-53
2022/07/30 03:33:37;;;;;;;5.43;3.60;;;;;;;;;;5058731;28;21316;-49
2022/07/30 03:36:04;;;;;;;4.70;4.30;;;;;;;;;;5058377;28;20834;-54
2022/07/30 03:38:30;;;;;;;6.80;5.00;;;;;;;;;;5042091;28;20448;-50
2022/07/30 03:40:56;;;;;;;4.80;4.23;;;;;;;;;;5031555;28;23173;-53
2022/07/30 03:43:25;;;;;;;4.80;4.20;;;;;;;;;;5048898;28;20507;-53
2022/07/30 03:46:01;;;;;;;11.53;4.13;;;;;;;;;;5046042;28;20457;-52
2022/07/30 03:48:27;;;;;;;5.57;3.73;;;;;;;;;;5059190;28;20438;-52
2022/07/30 03:50:58;;;;;;;6.53;3.80;;;;;;;;;;5040256;28;20488;-52
2022/07/30 03:53:26;;;;;;;4.90;4.50;;;;;;;;;;5059648;28;20605;-53
2022/07/30 03:55:52;;;;;;;7.50;4.30;;;;;;;;;;5045152;28;20421;-53
2022/07/30 03:58:18;;;;;;;5.43;4.20;;;;;;;;;;5060992;28;20443;-53
2022/07/30 04:00:47;;;;;;;5.43;4.90;;;;;;;;;;5052236;28;20476;-53
2022/07/30 04:03:16;;;;;;;5.10;4.60;;;;;;;;;;5054834;28;20445;-52
2022/07/30 04:05:45;;;;;;;4.53;4.10;;;;;;;;;;5027512;28;20839;-51
2022/07/30 04:08:17;;;;;;;5.30;4.77;;;;;;;;;;5056581;28;20943;-53
2022/07/30 04:10:43;;;;;;;4.93;4.43;;;;;;;;;;5044075;28;20453;-52
2022/07/30 04:13:25;;;;;;;5.53;5.03;;;;;;;;;;5057602;28;20957;-52
2022/07/30 04:16:02;;;;;;;5.10;4.70;;;;;;;;;;5050652;28;20433;-53
2022/07/30 04:18:36;;;;;;;6.87;4.93;;;;;;;;;;5062294;28;20448;-53
2022/07/30 04:21:03;;;;;;;9.13;4.23;;;;;;;;;;5062674;28;20476;-52
2022/07/30 04:23:31;;;;;;;5.07;4.50;;;;;;;;;;5065257;28;21254;-53
2022/07/30 04:25:59;;;;;;;4.90;4.50;;;;;;;;;;5019744;28;20556;-51
2022/07/30 04:28:26;;;;;;;4.53;4.13;;;;;;;;;;5046471;28;20433;-53
2022/07/30 04:30:53;;;;;;;5.20;4.70;;;;;;;;;;5041157;28;20442;-51
2022/07/30 04:33:26;;;;;;;5.07;4.57;;;;;;;;;;5044987;28;20438;-53
2022/07/30 04:36:26;;;;;;;5.20;4.77;;;;;;;;;;5060415;28;20433;-52
2022/07/30 04:38:58;;;;;;;6.20;5.13;;;;;;;;;;5059804;28;20459;-52
2022/07/30 04:41:26;;;;;;;6.60;4.90;;;;;;;;;;5034670;28;20480;-53
2022/07/30 04:43:52;;;;;;;5.10;4.60;;;;;;;;;;5061249;28;20429;-52
2022/07/30 04:46:18;;;;;;;5.10;4.03;;;;;;;;;;5056188;28;20501;-54
2022/07/30 04:48:44;;;;;;;4.93;4.47;;;;;;;;;;5062775;28;20475;-53
2022/07/30 04:51:12;;;;;;;8.13;4.63;;;;;;;;;;5043185;28;20444;-53
2022/07/30 04:53:38;;;;;;;6.20;4.80;;;;;;;;;;5065639;28;20501;-51
2022/07/30 04:56:04;;;;;;;5.17;4.67;;;;;;;;;;5046089;28;20437;-52
2022/07/30 04:58:30;;;;;;;5.57;5.10;;;;;;;;;;5060240;28;20455;-53
2022/07/30 05:01:23;;;;;;;5.40;4.40;;;;;;;;;;5057589;28;20477;-52
2022/07/30 05:03:55;;;;;;;4.97;4.07;;;;;;;;;;5043740;28;20451;-55
2022/07/30 05:06:33;;;;;;;5.07;4.30;;;;;;;;;;5042947;28;20448;-53
2022/07/30 05:08:59;;;;;;;5.67;4.97;;;;;;;;;;5038378;28;20458;-52
2022/07/30 05:11:45;;;;;;;5.17;4.53;;;;;;;;;;5052867;28;20443;-53
2022/07/30 05:14:25;;;;;;;5.33;4.30;;;;;;;;;;5051825;28;20932;-53
2022/07/30 05:16:51;;;;;;;9.27;5.87;;;;;;;;;;5053384;28;20449;-52
2022/07/30 05:19:17;;;;;;;5.33;4.70;;;;;;;;;;5054289;28;20436;-52
2022/07/30 05:21:43;;;;;;;7.70;5.23;;;;;;;;;;5039837;28;20472;-53
2022/07/30 05:24:13;;;;;;;4.60;4.20;;;;;;;;;;5047846;28;20456;-52
2022/07/30 05:26:39;;;;;;;6.43;4.57;;;;;;;;;;5045028;28;21758;-52
2022/07/30 05:29:51;;;;;;;9.57;4.97;;;;;;;;;;5052251;28;20445;-53
2022/07/30 05:32:22;;;;;;;7.53;4.97;;;;;;;;;;5033604;28;20452;-52
2022/07/30 05:34:49;;;;;;;9.50;4.40;;;;;;;;;;5037309;28;20734;-52
2022/07/30 05:37:15;;;;;;;4.40;4.00;;;;;;;;;;5039388;28;20449;-54
2022/07/30 05:39:41;;;;;;;6.67;4.83;;;;;;;;;;5044043;28;20862;-51
2022/07/30 05:42:07;;;;;;;5.23;4.73;;;;;;;;;;5045509;28;20561;-53
2022/07/30 05:44:43;;;;;;;6.73;4.87;;;;;;;;;;5032702;28;20441;-52
2022/07/30 05:47:11;;;;;;;8.77;4.17;;;;;;;;;;5038413;28;20530;-52
2022/07/30 05:49:41;;;;;;;5.73;5.00;;;;;;;;;;5051110;28;20548;-53
2022/07/30 05:52:07;;;;;;;5.07;4.67;;;;;;;;;;5008666;28;20434;-52
2022/07/30 05:54:33;;;;;;;5.40;4.90;;;;;;;;;;5048956;28;20460;-51
2022/07/30 05:57:00;;;;;;;5.20;4.60;;;;;;;;;;5041266;28;20433;-52
2022/07/30 05:59:26;;;;;;;7.87;5.20;;;;;;;;;;5052186;28;20693;-53
2022/07/30 06:01:52;;;;;;;7.20;4.90;;;;;;;;;;5033931;28;20798;-54
2022/07/30 06:04:41;;;;;;;7.13;5.20;;;;;;;;;;5054204;28;20441;-53
2022/07/30 06:07:10;;;;;;;7.37;5.43;;;;;;;;;;5025239;28;20448;-52
2022/07/30 06:09:36;;;;;;;5.67;5.17;;;;;;;;;;5049129;28;20572;-52
2022/07/30 06:12:03;;;;;;;5.43;4.57;;;;;;;;;;5045016;28;20477;-52
2022/07/30 06:14:30;;;;;;;6.17;5.50;;;;;;;;;;5047563;28;21077;-53
2022/07/30 06:16:56;;;;;;;6.63;6.00;;;;;;;;;;5044982;28;20985;-54
2022/07/30 06:19:22;;;;;;;5.80;5.20;;;;;;;;;;5044369;28;20433;-53
2022/07/30 06:21:48;;;;;;;9.27;5.60;;;;;;;;;;5046022;28;20507;-53
2022/07/30 06:24:15;;;;;;;7.20;6.50;;;;;;;;;;5054532;28;20440;-53
2022/07/30 06:26:56;;;;;;;10.03;6.77;;;;;;;;;;5063516;28;20962;-53
2022/07/30 06:29:23;;;;;;;7.90;5.50;;;;;;;;;;5031701;28;20556;-52
2022/07/30 06:31:49;;;;;;;7.07;6.23;;;;;;;;;;5049812;28;20475;-53
2022/07/30 06:34:15;;;;;;;6.97;6.37;;;;;;;;;;5038472;28;20438;-53
2022/07/30 06:36:41;;;;;;;7.33;5.70;;;;;;;;;;5048617;28;20866;-51
2022/07/30 06:39:07;;;;;;;7.40;6.40;;;;;;;;;;5034221;28;20467;-52
2022/07/30 06:42:03;;;;;;;8.77;5.73;;;;;;;;;;5047877;28;20481;-52
2022/07/30 06:44:37;;;;;;;6.60;6.00;;;;;;;;;;5031096;28;21204;-52
2022/07/30 06:50:06;;;;;;;9.03;5.93;;;;;;;;;;5050250;28;20271;-52
2022/07/30 06:52:32;;;;;;;7.70;6.60;;;;;;;;;;5053686;28;20450;-52
2022/07/30 06:55:01;;;;;;;6.50;5.57;;;;;;;;;;5041343;28;20446;-52
2022/07/30 06:57:28;;;;;;;6.70;6.00;;;;;;;;;;5050482;28;20188;-53
2022/07/30 06:59:54;;;;;;;9.13;6.57;;;;;;;;;;5038758;28;20460;-51
2022/07/30 07:02:20;;;;;;;9.40;5.70;;;;;;;;;;5040867;28;20491;-53
2022/07/30 07:05:06;;;;;;;6.37;5.70;;;;;;;;;;5044732;28;20433;-51
2022/07/30 07:07:37;;;;;;;6.40;5.67;;;;;;;;;;5052399;28;20452;-52
2022/07/30 07:10:15;;;;;;;7.17;6.47;;;;;;;;;;5042919;28;20431;-52
2022/07/30 07:12:41;;;;;;;7.60;6.90;;;;;;;;;;5058663;28;20441;-53
2022/07/30 07:15:07;;;;;;;6.27;5.63;;;;;;;;;;5040456;28;20445;-53
2022/07/30 07:17:42;;;;;;;7.30;6.47;;;;;;;;;;5060833;28;20970;-53
2022/07/30 07:20:17;;;;;;;12.40;6.90;;;;;;;;;;5038270;28;20473;-52
2022/07/30 07:22:43;;;;;;;6.90;6.30;;;;;;;;;;5053193;28;20437;-53
2022/07/30 07:25:36;;;;;;;7.00;6.40;;;;;;;;;;5038562;28;20461;-52
2022/07/30 07:28:06;;;;;;;8.60;7.20;;;;;;;;;;5024835;28;20508;-52
2022/07/30 07:30:55;;;;;;;8.23;6.40;;;;;;;;;;5046197;28;20461;-53
2022/07/30 07:33:28;;;;;;;8.10;6.50;;;;;;;;;;5048463;28;20446;-52
2022/07/30 07:35:54;;;;;;;6.90;5.87;;;;;;;;;;5049990;28;20433;-52
2022/07/30 07:38:21;;;;;;;9.40;6.90;;;;;;;;;;5031076;28;20520;-52
2022/07/30 07:40:50;;;;;;;7.87;6.10;;;;;;;;;;5017404;28;20469;-52
2022/07/30 07:43:16;;;;;;;6.83;6.20;;;;;;;;;;5038530;28;20524;-54
2022/07/30 07:45:59;;;;;;;6.70;6.03;;;;;;;;;;5024026;28;20433;-53
2022/07/30 07:48:39;;;;;;;8.03;5.70;;;;;;;;;;5027480;28;20450;-53
2022/07/30 07:51:11;;;;;;;7.40;6.57;;;;;;;;;;5046793;28;20429;-53
2022/07/30 07:53:37;;;;;;;10.27;5.90;;;;;;;;;;5043014;28;20458;-53
2022/07/30 07:56:07;;;;;;;9.97;5.33;;;;;;;;;;5012363;28;20461;-52
2022/07/30 07:58:52;;;;;;;6.80;6.20;;;;;;;;;;5043091;28;20438;-52
2022/07/30 08:01:22;;;;;;;6.80;5.37;;;;;;;;;;5029886;28;20476;-53
2022/07/30 08:03:50;;;;;;;5.73;5.27;;;;;;;;;;5046377;28;20517;-53
2022/07/30 08:06:16;;;;;;;6.70;5.90;;;;;;;;;;5030250;28;20445;-54
2022/07/30 08:09:17;;;;;;;7.20;5.10;;;;;;;;;;5055238;28;20524;-56
2022/07/30 08:11:46;;;;;;;6.43;5.17;;;;;;;;;;5023216;28;20499;-52
2022/07/30 08:14:13;;;;;;;6.03;5.37;;;;;;;;;;5055130;28;20482;-53
2022/07/30 08:16:39;;;;;;;6.07;5.47;;;;;;;;;;5029699;28;20538;-53
2022/07/30 08:19:05;;;;;;;9.17;5.50;;;;;;;;;;5038008;28;20517;-51
2022/07/30 08:21:31;;;;;;;5.90;5.27;;;;;;;;;;5010342;28;20484;-53
2022/07/30 08:23:57;;;;;;;8.13;5.50;;;;;;;;;;5053141;28;20438;-53
2022/07/30 08:26:32;;;;;;;6.30;5.30;;;;;;;;;;5028479;28;20238;-56
2022/07/30 08:29:15;;;;;;;5.90;4.70;;;;;;;;;;5048191;28;20987;-55
2022/07/30 08:31:43;;;;;;;6.70;5.73;;;;;;;;;;5020395;28;20881;-55
2022/07/30 08:34:21;;;;;;;6.40;5.37;;;;;;;;;;5052126;28;20656;-55
2022/07/30 08:36:53;;;;;;;6.00;5.50;;;;;;;;;;5033829;28;20371;-53
2022/07/30 08:39:19;;;;;;;5.70;5.20;;;;;;;;;;5051020;28;21026;-53
2022/07/30 08:42:05;;;;;;;5.10;4.70;;;;;;;;;;5014408;28;21100;-54
2022/07/30 08:44:33;;;;;;;7.57;4.60;;;;;;;;;;5054667;28;20218;-54
2022/07/30 08:46:59;;;;;;;5.10;4.70;;;;;;;;;;5034780;28;20469;-54
2022/07/30 08:49:25;;;;;;;5.47;5.00;;;;;;;;;;5057035;28;20430;-54
2022/07/30 08:52:00;;;;;;;5.80;5.20;;;;;;;;;;5018969;28;20832;-53
2022/07/30 08:54:27;;;;;;;5.80;4.30;;;;;;;;;;5056668;28;20789;-53
2022/07/30 08:57:13;;;;;;;8.90;4.97;;;;;;;;;;5034780;28;20491;-53
2022/07/30 08:59:40;;;;;;;12.23;5.47;;;;;;;;;;5057719;28;20434;-52
2022/07/30 09:02:31;;;;;;;7.13;6.43;;;;;;;;;;5041106;28;20554;-54
2022/07/30 09:05:04;;;;;;;5.43;4.93;;;;;;;;;;5051968;28;20445;-53
2022/07/30 09:07:32;;;;;;;6.77;4.70;;;;;;;;;;5007615;28;20536;-53
2022/07/30 09:09:59;;;;;;;4.90;4.50;;;;;;;;;;5050863;28;20429;-52
2022/07/30 09:12:35;;;;;;;5.30;4.80;;;;;;;;;;5033092;28;20881;-53
2022/07/30 09:15:02;;;;;;;6.27;5.70;;;;;;;;;;5056891;28;20495;-54
2022/07/30 09:17:29;;;;;;;6.03;4.97;;;;;;;;;;5057068;28;20440;-53
2022/07/30 09:20:05;;;;;;;5.70;4.37;;;;;;;;;;5022906;28;20445;-54
2022/07/30 09:22:44;;;;;;;5.60;4.97;;;;;;;;;;5055588;28;20222;-58
2022/07/30 09:25:10;;;;;;;4.73;4.30;;;;;;;;;;5040046;28;20437;-56
2022/07/30 09:27:43;;;;;;;7.50;5.20;;;;;;;;;;5031252;28;20471;-54
2022/07/30 09:30:10;;;;;;;4.43;4.07;;;;;;;;;;5050551;28;20421;-55
2022/07/30 09:32:55;;;;;;;4.77;4.13;;;;;;;;;;5013811;28;20944;-54
2022/07/30 09:35:24;;;;;;;5.53;4.10;;;;;;;;;;5043485;28;20471;-53
2022/07/30 09:37:59;;;;;;;5.00;4.60;;;;;;;;;;5042657;28;20482;-54
2022/07/30 09:40:25;;;;;;;4.63;3.77;;;;;;;;;;5045962;28;20452;-53
2022/07/30 09:46:15;;;;;;;4.90;4.13;;;;;;;;;;5038869;28;21839;-54
2022/07/30 09:48:52;;;;;;;4.07;3.50;;;;;;;;;;5024914;28;20509;-54
2022/07/30 09:51:18;;;;;;;5.20;4.13;;;;;;;;;;5051306;28;20448;-54
2022/07/30 09:53:59;;;;;;;5.93;4.63;;;;;;;;;;5034133;28;20421;-55
2022/07/30 09:56:26;;;;;;;4.10;3.70;;;;;;;;;;5044581;28;20445;-56
2022/07/30 09:58:52;;;;;;;5.77;4.10;;;;;;;;;;5038612;28;21859;-56
2022/07/30 10:01:21;;;;;;;8.67;4.33;;;;;;;;;;5017513;28;20464;-56
2022/07/30 10:03:56;;;;;;;3.20;2.87;;;;;;;;;;5044770;28;20794;-56
2022/07/30 10:06:34;;;;;;;6.63;4.80;;;;;;;;;;5032175;28;20445;-57
2022/07/30 10:09:00;;;;;;;10.87;4.03;;;;;;;;;;5043830;28;20433;-56
2022/07/30 10:11:27;;;;;;;4.43;3.20;;;;;;;;;;5021164;28;21603;-55
2022/07/30 10:13:54;;;;;;;5.33;4.10;;;;;;;;;;5033396;28;20445;-55
2022/07/30 10:16:20;;;;;;;6.17;3.80;;;;;;;;;;5022293;28;20441;-55
2022/07/30 10:18:47;;;;;;;4.93;4.20;;;;;;;;;;5016672;28;22237;-57
2022/07/30 10:21:22;;;;;;;3.67;3.37;;;;;;;;;;5013482;28;20463;-57
2022/07/30 10:23:51;;;;;;;3.50;3.20;;;;;;;;;;5043356;28;20559;-56
2022/07/30 10:26:30;;;;;;;4.23;3.23;;;;;;;;;;5028638;28;20453;-55
2022/07/30 10:28:57;;;;;;;5.20;3.40;;;;;;;;;;5023713;28;20445;-55
2022/07/30 10:31:25;;;;;;;3.93;3.50;;;;;;;;;;5051499;28;20449;-55
2022/07/30 10:34:15;;;;;;;3.80;3.50;;;;;;;;;;5035197;28;20433;-56
2022/07/30 10:36:46;;;;;;;3.63;3.10;;;;;;;;;;5051611;28;20483;-55
2022/07/30 10:39:21;;;;;;;5.20;3.30;;;;;;;;;;5030012;28;20448;-55
2022/07/30 10:42:07;;;;;;;10.33;3.97;;;;;;;;;;5044297;28;20864;-55
2022/07/30 10:44:54;;;;;;;4.17;3.67;;;;;;;;;;5015643;28;20544;-54
2022/07/30 10:47:32;;;;;;;3.23;2.93;;;;;;;;;;5050589;28;20426;-54
2022/07/30 10:50:09;;;;;;;6.90;3.37;;;;;;;;;;5031477;28;20434;-55
2022/07/30 10:52:54;;;;;;;4.60;3.00;;;;;;;;;;5046003;28;20449;-56
2022/07/30 10:55:21;;;;;;;3.27;2.97;;;;;;;;;;5029363;28;20452;-55
2022/07/30 10:57:57;;;;;;;5.10;3.10;;;;;;;;;;5048897;28;20932;-56
2022/07/30 11:00:36;;;;;;;5.10;3.47;;;;;;;;;;5022666;28;20429;-55
2022/07/30 11:06:16;;;;;;;3.63;3.33;;;;;;;;;;5038393;28;20475;-54
2022/07/30 11:08:49;;;;;;;3.90;2.93;;;;;;;;;;5054084;28;20673;-55
2022/07/30 11:11:21;;;;;;;4.00;3.20;;;;;;;;;;5052941;28;21261;-55
2022/07/30 11:13:53;;;;;;;5.17;2.80;;;;;;;;;;5050345;28;20672;-53
2022/07/30 11:16:20;;;;;;;5.80;3.17;;;;;;;;;;5052281;28;20524;-54
2022/07/30 11:19:02;;;;;;;3.47;3.00;;;;;;;;;;5006729;28;21368;-55
2022/07/30 11:21:30;;;;;;;8.43;3.30;;;;;;;;;;5053208;28;20580;-55
2022/07/30 11:24:23;;;;;;;3.10;2.80;;;;;;;;;;5055612;28;20445;-55
2022/07/30 11:27:00;;;;;;;4.90;2.80;;;;;;;;;;5034883;28;20441;-55
2022/07/30 11:29:37;;;;;;;4.43;3.07;;;;;;;;;;5028885;28;20446;-57
2022/07/30 11:32:29;;;;;;;4.53;2.97;;;;;;;;;;5026741;28;20516;-56
2022/07/30 11:35:19;;;;;;;4.67;2.97;;;;;;;;;;5046548;28;21682;-57
2022/07/30 11:38:05;;;;;;;5.87;2.83;;;;;;;;;;5028216;28;20487;-57
2022/07/30 11:40:47;;;;;;;5.30;3.00;;;;;;;;;;5052590;28;20448;-58
2022/07/30 11:43:28;;;;;;;4.03;3.50;;;;;;;;;;5042099;28;20461;-54
2022/07/30 11:46:10;;;;;;;3.77;3.23;;;;;;;;;;5051900;28;20441;-56
2022/07/30 11:48:37;;;;;;;4.20;3.23;;;;;;;;;;5037623;28;20437;-57
2022/07/30 11:51:03;;;;;;;4.03;3.70;;;;;;;;;;5055254;28;20793;-57
2022/07/30 11:53:29;;;;;;;5.00;3.20;;;;;;;;;;5033703;28;20460;-55
2022/07/30 11:55:59;;;;;;;4.17;3.00;;;;;;;;;;5059031;28;20464;-56
2022/07/30 11:58:25;;;;;;;3.30;2.77;;;;;;;;;;5026982;28;20979;-56
2022/07/30 12:00:52;;;;;;;4.00;2.80;;;;;;;;;;5056500;28;20881;-56
2022/07/30 12:03:18;;;;;;;3.53;2.80;;;;;;;;;;5025792;28;20467;-58
2022/07/30 12:05:45;;;;;;;3.53;2.60;;;;;;;;;;5057748;28;20429;-57
2022/07/30 12:08:15;;;;;;;3.10;2.53;;;;;;;;;;5032032;28;20540;-59
2022/07/30 12:10:42;;;;;;;3.03;2.70;;;;;;;;;;5045646;28;20445;-58
2022/07/30 12:13:20;;;;;;;4.23;3.07;;;;;;;;;;5027419;28;23450;-55
2022/07/30 12:15:49;;;;;;;3.27;2.40;;;;;;;;;;5055978;28;20498;-55
2022/07/30 12:18:25;;;;;;;3.00;2.40;;;;;;;;;;5055603;28;20443;-57
2022/07/30 12:21:01;;;;;;;9.17;2.93;;;;;;;;;;5055714;28;20487;-56
2022/07/30 12:23:35;;;;;;;3.40;2.00;;;;;;;;;;5009862;28;20565;-56
2022/07/30 12:26:02;;;;;;;2.53;2.33;;;;;;;;;;5045396;28;20471;-55
2022/07/30 12:28:29;;;;;;;2.60;2.40;;;;;;;;;;5028336;28;20446;-55
2022/07/30 12:30:56;;;;;;;2.83;2.50;;;;;;;;;;5059600;28;20417;-56
2022/07/30 12:33:41;;;;;;;3.10;2.80;;;;;;;;;;5046529;28;20476;-56
2022/07/30 12:36:35;;;;;;;2.97;2.60;;;;;;;;;;5054691;28;20665;-55
2022/07/30 12:39:05;;;;;;;2.67;2.20;;;;;;;;;;5057249;28;20509;-57
2022/07/30 12:41:41;;;;;;;4.13;2.40;;;;;;;;;;5063015;28;20477;-55
2022/07/30 12:44:08;;;;;;;2.80;2.60;;;;;;;;;;5036131;28;20435;-55
2022/07/30 12:46:37;;;;;;;3.23;2.30;;;;;;;;;;5056010;28;20445;-56
2022/07/30 12:49:10;;;;;;;2.73;2.50;;;;;;;;;;5030495;28;20788;-56
2022/07/30 12:51:49;;;;;;;3.10;2.23;;;;;;;;;;5039380;28;20429;-56
2022/07/30 12:54:24;;;;;;;3.43;2.83;;;;;;;;;;5030251;28;20479;-56
2022/07/30 12:57:02;;;;;;;3.00;2.47;;;;;;;;;;5054309;28;20441;-56
2022/07/30 12:59:29;;;;;;;3.07;2.60;;;;;;;;;;5046046;28;20445;-57
2022/07/30 13:02:07;;;;;;;3.30;2.53;;;;;;;;;;5058078;28;20523;-56
2022/07/30 13:04:49;;;;;;;2.50;2.30;;;;;;;;;;5033591;28;20449;-55
2022/07/30 13:07:30;;;;;;;3.10;2.10;;;;;;;;;;5057054;28;20468;-56
2022/07/30 13:10:10;;;;;;;4.03;2.47;;;;;;;;;;5048168;28;21158;-55
2022/07/30 13:12:36;;;;;;;3.80;2.60;;;;;;;;;;5010928;28;20441;-54
2022/07/30 13:15:02;;;;;;;3.00;2.20;;;;;;;;;;5054782;28;20528;-55
2022/07/30 13:17:28;;;;;;;4.40;2.70;;;;;;;;;;5010609;28;20533;-56
2022/07/30 13:19:54;;;;;;;2.87;2.57;;;;;;;;;;5054510;28;20509;-54
2022/07/30 13:22:46;;;;;;;3.23;2.50;;;;;;;;;;5049628;28;20636;-56
2022/07/30 13:25:16;;;;;;;2.60;2.23;;;;;;;;;;5054511;28;20522;-56
2022/07/30 13:27:43;;;;;;;4.30;2.40;;;;;;;;;;5059640;28;20450;-56
2022/07/30 13:30:10;;;;;;;6.30;2.70;;;;;;;;;;5058569;28;20921;-54
2022/07/30 13:32:52;;;;;;;4.23;2.40;;;;;;;;;;5048165;28;23082;-55
2022/07/30 13:35:19;;;;;;;2.70;2.33;;;;;;;;;;5058210;28;20804;-55
2022/07/30 13:37:47;;;;;;;3.53;2.67;;;;;;;;;;5036398;28;25430;-54
2022/07/30 13:40:13;;;;;;;2.90;2.37;;;;;;;;;;5050404;28;20440;-54
2022/07/30 13:42:54;;;;;;;3.13;2.83;;;;;;;;;;5038061;28;22347;-55
2022/07/30 13:45:23;;;;;;;3.10;2.80;;;;;;;;;;5041727;28;20491;-55
2022/07/30 13:48:01;;;;;;;4.40;2.57;;;;;;;;;;5027588;28;20878;-55
2022/07/30 13:50:28;;;;;;;4.27;2.70;;;;;;;;;;5047660;28;20222;-56
2022/07/30 13:52:54;;;;;;;3.50;2.80;;;;;;;;;;5029101;28;20632;-55
2022/07/30 13:55:20;;;;;;;4.40;2.80;;;;;;;;;;5038824;28;20558;-55
2022/07/30 13:57:54;;;;;;;3.27;2.70;;;;;;;;;;5042524;28;20297;-54
2022/07/30 14:00:21;;;;;;;3.67;3.10;;;;;;;;;;5058274;28;20521;-55
2022/07/30 14:02:47;;;;;;;3.17;2.87;;;;;;;;;;5033080;28;20480;-56
2022/07/30 14:05:13;;;;;;;4.40;2.60;;;;;;;;;;5054772;28;20430;-55
2022/07/30 14:07:58;;;;;;;2.83;2.53;;;;;;;;;;5058612;28;20442;-56
2022/07/30 14:10:25;;;;;;;3.37;2.40;;;;;;;;;;5056914;28;20460;-55
2022/07/30 14:13:00;;;;;;;4.73;2.93;;;;;;;;;;5039278;28;20441;-55
2022/07/30 14:15:29;;;;;;;3.30;2.30;;;;;;;;;;5054505;28;20483;-55
2022/07/30 14:18:06;;;;;;;4.50;2.83;;;;;;;;;;5033540;28;20442;-55
2022/07/30 14:20:36;;;;;;;3.33;3.00;;;;;;;;;;5062272;28;20697;-56
2022/07/30 14:23:02;;;;;;;2.93;2.63;;;;;;;;;;5018256;28;20448;-55
2022/07/30 14:25:30;;;;;;;2.80;2.60;;;;;;;;;;5054095;28;20433;-55
2022/07/30 14:27:56;;;;;;;4.73;3.17;;;;;;;;;;5036107;28;20618;-56
2022/07/30 14:30:23;;;;;;;3.03;2.30;;;;;;;;;;5055983;28;20477;-56
2022/07/30 14:32:49;;;;;;;3.33;3.03;;;;;;;;;;5052388;28;20510;-54
2022/07/30 14:35:16;;;;;;;3.77;2.73;;;;;;;;;;5059434;28;20434;-55
2022/07/30 14:37:42;;;;;;;3.90;2.70;;;;;;;;;;5014283;28;20450;-57
2022/07/30 14:40:10;;;;;;;4.53;3.20;;;;;;;;;;5056049;28;20433;-56
2022/07/30 14:42:36;;;;;;;3.13;2.83;;;;;;;;;;5037903;28;20551;-56
2022/07/30 14:45:03;;;;;;;3.50;3.10;;;;;;;;;;5056258;28;20421;-54
2022/07/30 14:47:35;;;;;;;6.23;2.60;;;;;;;;;;5047246;28;20464;-55
2022/07/30 14:50:02;;;;;;;7.90;2.60;;;;;;;;;;5053447;28;20636;-56
2022/07/30 14:52:28;;;;;;;2.50;2.00;;;;;;;;;;5033136;28;20469;-56
2022/07/30 14:54:54;;;;;;;2.97;2.67;;;;;;;;;;5053596;28;20533;-55
2022/07/30 14:57:35;;;;;;;6.60;4.13;;;;;;;;;;5037893;28;20430;-55
2022/07/30 15:00:08;;;;;;;3.43;2.40;;;;;;;;;;5048730;28;24030;-57
2022/07/30 15:02:34;;;;;;;2.47;2.17;;;;;;;;;;5029100;28;20575;-55
2022/07/30 15:05:00;;;;;;;2.87;2.33;;;;;;;;;;5057034;28;20886;-56
2022/07/30 15:07:26;;;;;;;3.27;2.90;;;;;;;;;;5037431;28;20194;-55
2022/07/30 15:09:52;;;;;;;3.87;2.27;;;;;;;;;;5053769;28;20440;-60
2022/07/30 15:12:19;;;;;;;3.00;2.50;;;;;;;;;;5034256;28;20457;-54
2022/07/30 15:14:47;;;;;;;3.03;2.73;;;;;;;;;;5050649;28;20218;-55
2022/07/30 15:17:13;;;;;;;3.00;2.70;;;;;;;;;;5038596;28;20470;-55
2022/07/30 15:19:39;;;;;;;2.87;2.37;;;;;;;;;;5049714;28;20471;-55
2022/07/30 15:22:05;;;;;;;2.57;2.37;;;;;;;;;;5028986;28;21021;-55
2022/07/30 15:24:32;;;;;;;2.73;2.00;;;;;;;;;;5051193;28;20495;-56
2022/07/30 15:27:17;;;;;;;2.63;2.40;;;;;;;;;;5036016;28;20438;-53
2022/07/30 15:29:45;;;;;;;3.30;3.00;;;;;;;;;;5050487;28;20427;-55
2022/07/30 15:32:26;;;;;;;3.17;2.87;;;;;;;;;;5053044;28;20452;-56